createdAt,value
2023-04-16T04:00:42.570Z,1006.52
2023-04-16T04:01:43.592Z,1006.53
2023-04-16T04:02:43.790Z,1006.52
2023-04-16T04:03:43.716Z,1006.52
2023-04-16T04:04:43.631Z,1006.54
2023-04-16T04:05:43.593Z,1006.52
2023-04-16T04:06:43.485Z,1006.54
2023-04-16T04:07:43.494Z,1006.54
2023-04-16T04:08:43.476Z,1006.55
2023-04-16T04:09:43.456Z,1006.56
2023-04-16T04:10:43.481Z,1006.56
2023-04-16T04:11:43.465Z,1006.55
2023-04-16T04:12:43.436Z,1006.55
2023-04-16T04:13:43.420Z,1006.57
2023-04-16T04:14:43.406Z,1006.57
2023-04-16T04:15:43.385Z,1006.58
2023-04-16T04:16:43.473Z,1006.59
2023-04-16T04:17:43.418Z,1006.59
2023-04-16T04:18:44.478Z,1006.61
2023-04-16T04:19:54.275Z,1006.61
2023-04-16T04:20:43.358Z,1006.61
2023-04-16T04:21:43.361Z,1006.64
2023-04-16T04:22:43.328Z,1006.64
2023-04-16T04:23:43.328Z,1006.63
2023-04-16T04:24:43.332Z,1006.66
2023-04-16T04:25:43.296Z,1006.65
2023-04-16T04:26:43.326Z,1006.66
2023-04-16T04:27:43.257Z,1006.67
2023-04-16T04:28:43.288Z,1006.69
2023-04-16T04:29:43.259Z,1006.69
2023-04-16T04:30:43.258Z,1006.71
2023-04-16T04:31:43.300Z,1006.71
2023-04-16T04:32:43.304Z,1006.71
2023-04-16T04:33:43.222Z,1006.70
2023-04-16T04:34:43.215Z,1006.71
2023-04-16T04:35:43.194Z,1006.72
2023-04-16T04:36:43.206Z,1006.79
2023-04-16T04:37:43.167Z,1006.77
2023-04-16T04:38:43.161Z,1006.78
2023-04-16T04:39:43.161Z,1006.73
2023-04-16T04:40:43.131Z,1006.75
2023-04-16T04:41:43.154Z,1006.78
2023-04-16T04:42:43.131Z,1006.76
2023-04-16T04:43:43.128Z,1006.80
2023-04-16T04:44:43.101Z,1006.80
2023-04-16T04:45:43.150Z,1006.79
2023-04-16T04:46:43.123Z,1006.80
2023-04-16T04:47:43.114Z,1006.81
2023-04-16T04:48:43.086Z,1006.83
2023-04-16T04:49:43.029Z,1006.84
2023-04-16T04:50:43.033Z,1006.88
2023-04-16T04:51:43.108Z,1006.89
2023-04-16T04:52:43.012Z,1006.92
2023-04-16T04:53:43.018Z,1006.92
2023-04-16T04:54:43.027Z,1006.94
2023-04-16T04:55:42.984Z,1006.94
2023-04-16T04:56:42.985Z,1006.95
2023-04-16T04:57:42.965Z,1006.96
2023-04-16T04:58:42.980Z,1006.95
2023-04-16T04:59:42.931Z,1006.97
2023-04-16T05:00:43.096Z,1007.01
2023-04-16T05:01:42.927Z,1006.97
2023-04-16T05:02:43.013Z,1006.99
2023-04-16T05:03:42.982Z,1007.04
2023-04-16T05:04:43.068Z,1007.03
2023-04-16T05:05:42.864Z,1007.07
2023-04-16T05:06:42.876Z,1007.06
2023-04-16T05:07:42.848Z,1007.07
2023-04-16T05:08:42.844Z,1007.10
2023-04-16T05:09:42.825Z,1007.12
2023-04-16T05:10:42.818Z,1007.16
2023-04-16T05:11:43.090Z,1007.14
2023-04-16T05:12:42.795Z,1007.17
2023-04-16T05:13:42.815Z,1007.16
2023-04-16T05:14:42.774Z,1007.18
2023-04-16T05:15:42.782Z,1007.18
2023-04-16T05:16:42.805Z,1007.17
2023-04-16T05:17:42.821Z,1007.19
2023-04-16T05:18:42.733Z,1007.18
2023-04-16T05:19:42.724Z,1007.21
2023-04-16T05:20:42.712Z,1007.21
2023-04-16T05:21:42.734Z,1007.20
2023-04-16T05:22:42.691Z,1007.21
2023-04-16T05:23:42.701Z,1007.22
2023-04-16T05:24:42.767Z,1007.25
2023-04-16T05:25:42.696Z,1007.26
2023-04-16T05:26:42.685Z,1007.28
2023-04-16T05:27:42.652Z,1007.30
2023-04-16T05:28:42.656Z,1007.31
2023-04-16T05:29:42.646Z,1007.31
2023-04-16T05:30:42.685Z,1007.33
2023-04-16T05:31:42.626Z,1007.33
2023-04-16T05:32:42.617Z,1007.34
2023-04-16T05:33:42.576Z,1007.35
2023-04-16T05:34:42.574Z,1007.35
2023-04-16T05:35:42.571Z,1007.35
2023-04-16T05:36:42.565Z,1007.37
2023-04-16T05:37:42.538Z,1007.38
2023-04-16T05:38:42.523Z,1007.37
2023-04-16T05:39:42.522Z,1007.39
2023-04-16T05:40:42.504Z,1007.42
2023-04-16T05:41:42.496Z,1007.45
2023-04-16T05:42:42.480Z,1007.46
2023-04-16T05:43:42.521Z,1007.45
2023-04-16T05:44:42.483Z,1007.47
2023-04-16T05:45:42.522Z,1007.49
2023-04-16T05:46:42.463Z,1007.50
2023-04-16T05:47:42.476Z,1007.50
2023-04-16T05:48:42.430Z,1007.53
2023-04-16T05:49:42.431Z,1007.52
2023-04-16T05:50:42.425Z,1007.54
2023-04-16T05:51:42.453Z,1007.55
2023-04-16T05:52:42.387Z,1007.54
2023-04-16T05:53:42.421Z,1007.56
2023-04-16T05:54:42.387Z,1007.58
2023-04-16T05:55:42.354Z,1007.60
2023-04-16T05:56:42.346Z,1007.57
2023-04-16T05:57:42.330Z,1007.59
2023-04-16T05:58:42.449Z,1007.61
2023-04-16T05:59:42.356Z,1007.58
2023-04-16T06:00:42.282Z,1007.57
2023-04-16T06:01:42.314Z,1007.57
2023-04-16T06:02:42.448Z,1007.58
2023-04-16T06:03:42.319Z,1007.58
2023-04-16T06:04:42.273Z,1007.59
2023-04-16T06:05:42.289Z,1007.60
2023-04-16T06:06:42.246Z,1007.58
2023-04-16T06:07:42.232Z,1007.61
2023-04-16T06:08:42.234Z,1007.62
2023-04-16T06:09:42.207Z,1007.61
2023-04-16T06:10:42.204Z,1007.64
2023-04-16T06:11:42.242Z,1007.64
2023-04-16T06:12:42.167Z,1007.63
2023-04-16T06:13:42.159Z,1007.65
2023-04-16T06:14:42.162Z,1007.66
2023-04-16T06:15:42.207Z,1007.67
2023-04-16T06:16:42.153Z,1007.66
2023-04-16T06:17:42.123Z,1007.66
2023-04-16T06:18:42.142Z,1007.67
2023-04-16T06:19:42.103Z,1007.69
2023-04-16T06:20:42.111Z,1007.71
2023-04-16T06:21:42.087Z,1007.73
2023-04-16T06:22:42.054Z,1007.72
2023-04-16T06:23:42.074Z,1007.74
2023-04-16T06:24:42.038Z,1007.78
2023-04-16T06:25:42.021Z,1007.82
2023-04-16T06:26:42.049Z,1007.82
2023-04-16T06:27:42.035Z,1007.87
2023-04-16T06:28:42.001Z,1007.85
2023-04-16T06:29:42.109Z,1007.85
2023-04-16T06:30:44.467Z,1007.86
2023-04-16T06:31:42.042Z,1007.85
2023-04-16T06:32:42.030Z,1007.87
2023-04-16T06:33:41.941Z,1007.87
2023-04-16T06:34:41.937Z,1007.90
2023-04-16T06:35:41.954Z,1007.89
2023-04-16T06:36:41.912Z,1007.90
2023-04-16T06:37:41.898Z,1007.90
2023-04-16T06:38:41.896Z,1007.92
2023-04-16T06:39:41.891Z,1007.93
2023-04-16T06:40:41.909Z,1007.95
2023-04-16T06:41:41.859Z,1007.96
2023-04-16T06:42:43.584Z,1007.97
2023-04-16T06:43:41.862Z,1007.97
2023-04-16T06:44:41.851Z,1008.01
2023-04-16T06:45:41.836Z,1007.99
2023-04-16T06:46:41.860Z,1007.99
2023-04-16T06:47:41.887Z,1007.98
2023-04-16T06:48:41.773Z,1008.00
2023-04-16T06:49:41.813Z,1008.00
2023-04-16T06:50:41.750Z,1008.01
2023-04-16T06:51:41.773Z,1008.03
2023-04-16T06:52:41.742Z,1008.04
2023-04-16T06:53:41.737Z,1008.03
2023-04-16T06:54:41.745Z,1008.05
2023-04-16T06:55:41.716Z,1008.06
2023-04-16T06:56:41.708Z,1008.07
2023-04-16T06:57:41.691Z,1008.07
2023-04-16T06:58:41.693Z,1008.05
2023-04-16T06:59:41.681Z,1008.03
2023-04-16T07:00:41.691Z,1008.02
2023-04-16T07:01:41.707Z,1008.04
2023-04-16T07:02:41.748Z,1008.05
2023-04-16T07:03:41.839Z,1008.07
2023-04-16T07:04:41.615Z,1008.05
2023-04-16T07:05:41.605Z,1008.04
2023-04-16T07:06:41.608Z,1008.04
2023-04-16T07:07:41.585Z,1008.05
2023-04-16T07:08:41.571Z,1008.07
2023-04-16T07:09:41.563Z,1008.10
2023-04-16T07:10:41.564Z,1008.12
2023-04-16T07:11:41.583Z,1008.12
2023-04-16T07:12:41.527Z,1008.15
2023-04-16T07:13:41.522Z,1008.17
2023-04-16T07:14:41.512Z,1008.18
2023-04-16T07:15:41.495Z,1008.18
2023-04-16T07:16:41.551Z,1008.16
2023-04-16T07:17:41.540Z,1008.18
2023-04-16T07:18:41.457Z,1008.21
2023-04-16T07:19:41.453Z,1008.21
2023-04-16T07:20:41.461Z,1008.23
2023-04-16T07:21:41.477Z,1008.20
2023-04-16T07:22:41.436Z,1008.21
2023-04-16T07:23:41.413Z,1008.22
2023-04-16T07:24:41.413Z,1008.22
2023-04-16T07:25:41.387Z,1008.22
2023-04-16T07:26:41.442Z,1008.24
2023-04-16T07:27:41.369Z,1008.25
2023-04-16T07:28:41.398Z,1008.26
2023-04-16T07:29:41.399Z,1008.26
2023-04-16T07:30:41.373Z,1008.26
2023-04-16T07:31:41.399Z,1008.28
2023-04-16T07:32:41.355Z,1008.29
2023-04-16T07:33:41.324Z,1008.31
2023-04-16T07:34:41.296Z,1008.30
2023-04-16T07:35:41.318Z,1008.31
2023-04-16T07:36:41.296Z,1008.33
2023-04-16T07:37:41.276Z,1008.34
2023-04-16T07:38:41.317Z,1008.31
2023-04-16T07:39:41.269Z,1008.30
2023-04-16T07:40:41.258Z,1008.30
2023-04-16T07:41:41.409Z,1008.32
2023-04-16T07:42:41.223Z,1008.33
2023-04-16T07:43:41.409Z,1008.34
2023-04-16T07:44:41.220Z,1008.38
2023-04-16T07:45:41.594Z,1008.38
2023-04-16T07:46:46.929Z,1008.41
2023-04-16T07:47:41.193Z,1008.43
2023-04-16T07:48:41.177Z,1008.44
2023-04-16T07:49:41.145Z,1008.45
2023-04-16T07:50:41.172Z,1008.46
2023-04-16T07:51:41.170Z,1008.48
2023-04-16T07:52:41.117Z,1008.47
2023-04-16T07:53:41.120Z,1008.47
2023-04-16T07:54:41.089Z,1008.47
2023-04-16T07:55:41.112Z,1008.46
2023-04-16T07:56:41.088Z,1008.47
2023-04-16T07:57:41.062Z,1008.48
2023-04-16T07:58:41.042Z,1008.48
2023-04-16T07:59:41.088Z,1008.49
2023-04-16T08:00:41.017Z,1008.50
2023-04-16T08:01:41.019Z,1008.52
2023-04-16T08:02:41.221Z,1008.53
2023-04-16T08:03:41.126Z,1008.56
2023-04-16T08:04:41.314Z,1008.58
2023-04-16T08:05:40.969Z,1008.59
2023-04-16T08:06:40.966Z,1008.59
2023-04-16T08:07:40.953Z,1008.60
2023-04-16T08:08:41.116Z,1008.61
2023-04-16T08:09:40.935Z,1008.66
2023-04-16T08:10:40.925Z,1008.68
2023-04-16T08:11:40.930Z,1008.68
2023-04-16T08:12:40.927Z,1008.67
2023-04-16T08:13:40.929Z,1008.69
2023-04-16T08:14:40.890Z,1008.71
2023-04-16T08:15:40.961Z,1008.74
2023-04-16T08:16:40.892Z,1008.75
2023-04-16T08:17:40.864Z,1008.73
2023-04-16T08:18:40.856Z,1008.75
2023-04-16T08:19:40.847Z,1008.78
2023-04-16T08:20:40.894Z,1008.81
2023-04-16T08:21:40.816Z,1008.81
2023-04-16T08:22:40.819Z,1008.81
2023-04-16T08:23:40.772Z,1008.83
2023-04-16T08:24:40.815Z,1008.84
2023-04-16T08:25:40.833Z,1008.87
2023-04-16T08:26:40.763Z,1008.88
2023-04-16T08:27:40.767Z,1008.87
2023-04-16T08:28:40.748Z,1008.88
2023-04-16T08:29:40.713Z,1008.90
2023-04-16T08:30:40.719Z,1008.89
2023-04-16T08:31:40.743Z,1008.90
2023-04-16T08:32:40.735Z,1008.93
2023-04-16T08:33:40.683Z,1008.93
2023-04-16T08:34:40.671Z,1008.95
2023-04-16T08:35:40.658Z,1008.95
2023-04-16T08:36:40.660Z,1008.95
2023-04-16T08:37:40.658Z,1008.95
2023-04-16T08:38:40.653Z,1008.98
2023-04-16T08:39:40.626Z,1008.98
2023-04-16T08:40:40.599Z,1008.98
2023-04-16T08:41:40.589Z,1009.00
2023-04-16T08:42:40.622Z,1009.00
2023-04-16T08:43:40.579Z,1009.02
2023-04-16T08:44:40.572Z,1009.02
2023-04-16T08:45:40.546Z,1009.04
2023-04-16T08:46:40.626Z,1009.06
2023-04-16T08:47:40.583Z,1009.06
2023-04-16T08:48:40.505Z,1009.06
2023-04-16T08:49:40.538Z,1009.06
2023-04-16T08:50:40.535Z,1009.09
2023-04-16T08:51:40.474Z,1009.09
2023-04-16T08:52:40.497Z,1009.09
2023-04-16T08:53:40.469Z,1009.10
2023-04-16T08:54:40.667Z,1009.11
2023-04-16T08:55:40.479Z,1009.11
2023-04-16T08:56:42.851Z,1009.12
2023-04-16T08:57:40.424Z,1009.13
2023-04-16T08:58:40.407Z,1009.14
2023-04-16T08:59:40.419Z,1009.14
2023-04-16T09:00:40.595Z,1009.16
2023-04-16T09:01:40.425Z,1009.16
2023-04-16T09:02:40.686Z,1009.18
2023-04-16T09:03:40.422Z,1009.20
2023-04-16T09:04:40.406Z,1009.19
2023-04-16T09:05:40.374Z,1009.19
2023-04-16T09:06:40.348Z,1009.20
2023-04-16T09:07:40.320Z,1009.22
2023-04-16T09:08:40.309Z,1009.21
2023-04-16T09:09:40.313Z,1009.21
2023-04-16T09:10:40.320Z,1009.21
2023-04-16T09:11:40.290Z,1009.19
2023-04-16T09:12:40.345Z,1009.22
2023-04-16T09:13:40.264Z,1009.23
2023-04-16T09:14:40.272Z,1009.21
2023-04-16T09:15:40.256Z,1009.22
2023-04-16T09:16:40.421Z,1009.22
2023-04-16T09:17:40.262Z,1009.22
2023-04-16T09:18:40.203Z,1009.22
2023-04-16T09:19:40.273Z,1009.21
2023-04-16T09:20:40.174Z,1009.20
2023-04-16T09:21:40.190Z,1009.18
2023-04-16T09:22:40.159Z,1009.17
2023-04-16T09:23:40.172Z,1009.16
2023-04-16T09:24:40.246Z,1009.14
2023-04-16T09:25:40.132Z,1009.15
2023-04-16T09:26:40.142Z,1009.17
2023-04-16T09:27:40.116Z,1009.18
2023-04-16T09:28:40.099Z,1009.20
2023-04-16T09:29:40.103Z,1009.21
2023-04-16T09:30:40.083Z,1009.22
2023-04-16T09:31:40.122Z,1009.24
2023-04-16T09:32:40.158Z,1009.27
2023-04-16T09:33:40.062Z,1009.26
2023-04-16T09:34:40.072Z,1009.26
2023-04-16T09:35:40.059Z,1009.26
2023-04-16T09:36:40.029Z,1009.27
2023-04-16T09:37:40.027Z,1009.29
2023-04-16T09:38:40.014Z,1009.29
2023-04-16T09:39:40.016Z,1009.31
2023-04-16T09:40:39.994Z,1009.32
2023-04-16T09:41:39.971Z,1009.32
2023-04-16T09:42:39.984Z,1009.33
2023-04-16T09:43:39.959Z,1009.34
2023-04-16T09:44:40.017Z,1009.34
2023-04-16T09:45:39.990Z,1009.35
2023-04-16T09:46:39.934Z,1009.36
2023-04-16T09:47:40.070Z,1009.36
2023-04-16T09:48:39.897Z,1009.38
2023-04-16T09:49:39.898Z,1009.38
2023-04-16T09:50:40.031Z,1009.39
2023-04-16T09:51:39.873Z,1009.41
2023-04-16T09:52:39.869Z,1009.42
2023-04-16T09:53:39.880Z,1009.41
2023-04-16T09:54:39.857Z,1009.42
2023-04-16T09:55:39.858Z,1009.42
2023-04-16T09:56:39.825Z,1009.41
2023-04-16T09:57:39.815Z,1009.43
2023-04-16T09:58:39.785Z,1009.42
2023-04-16T09:59:39.806Z,1009.42
2023-04-16T10:00:43.237Z,1009.42
2023-04-16T10:01:39.843Z,1009.43
2023-04-16T10:02:39.857Z,1009.44
2023-04-16T10:03:40.121Z,1009.44
2023-04-16T10:04:39.749Z,1009.46
2023-04-16T10:05:39.760Z,1009.45
2023-04-16T10:06:39.706Z,1009.46
2023-04-16T10:07:39.717Z,1009.48
2023-04-16T10:08:39.677Z,1009.50
2023-04-16T10:09:39.696Z,1009.51
2023-04-16T10:10:39.665Z,1009.52
2023-04-16T10:11:39.667Z,1009.51
2023-04-16T10:12:40.206Z,1009.52
2023-04-16T10:13:39.651Z,1009.54
2023-04-16T10:14:39.654Z,1009.52
2023-04-16T10:15:39.650Z,1009.54
2023-04-16T10:16:39.766Z,1009.55
2023-04-16T10:17:39.630Z,1009.55
2023-04-16T10:18:39.696Z,1009.55
2023-04-16T10:19:39.591Z,1009.54
2023-04-16T10:20:39.569Z,1009.54
2023-04-16T10:21:39.552Z,1009.53
2023-04-16T10:22:39.546Z,1009.54
2023-04-16T10:23:39.534Z,1009.56
2023-04-16T10:24:39.545Z,1009.55
2023-04-16T10:25:39.538Z,1009.55
2023-04-16T10:26:39.506Z,1009.56
2023-04-16T10:27:39.510Z,1009.55
2023-04-16T10:28:39.545Z,1009.60
2023-04-16T10:29:39.475Z,1009.59
2023-04-16T10:30:39.578Z,1009.58
2023-04-16T10:31:39.488Z,1009.60
2023-04-16T10:32:39.503Z,1009.60
2023-04-16T10:33:39.457Z,1009.60
2023-04-16T10:34:39.423Z,1009.62
2023-04-16T10:35:39.413Z,1009.61
2023-04-16T10:36:39.484Z,1009.61
2023-04-16T10:37:39.397Z,1009.62
2023-04-16T10:38:39.384Z,1009.63
2023-04-16T10:39:39.403Z,1009.63
2023-04-16T10:40:39.370Z,1009.64
2023-04-16T10:41:39.378Z,1009.62
2023-04-16T10:42:39.345Z,1009.62
2023-04-16T10:43:39.335Z,1009.61
2023-04-16T10:44:39.725Z,1009.61
2023-04-16T10:45:39.312Z,1009.60
2023-04-16T10:46:39.409Z,1009.59
2023-04-16T10:47:39.312Z,1009.61
2023-04-16T10:48:49.147Z,1009.59
2023-04-16T10:49:39.330Z,1009.59
2023-04-16T10:50:39.265Z,1009.60
2023-04-16T10:51:39.293Z,1009.61
2023-04-16T10:52:39.274Z,1009.59
2023-04-16T10:53:39.216Z,1009.59
2023-04-16T10:54:39.260Z,1009.59
2023-04-16T10:55:39.220Z,1009.60
2023-04-16T10:56:39.248Z,1009.60
2023-04-16T10:57:39.244Z,1009.60
2023-04-16T10:58:39.204Z,1009.60
2023-04-16T10:59:39.199Z,1009.58
2023-04-16T11:00:39.144Z,1009.57
2023-04-16T11:01:39.188Z,1009.56
2023-04-16T11:02:39.399Z,1009.56
2023-04-16T11:03:39.214Z,1009.54
2023-04-16T11:04:39.357Z,1009.56
2023-04-16T11:05:39.120Z,1009.54
2023-04-16T11:06:39.156Z,1009.51
2023-04-16T11:07:39.060Z,1009.50
2023-04-16T11:08:53.255Z,1009.52
2023-04-16T11:09:39.080Z,1009.52
2023-04-16T11:10:39.053Z,1009.48
2023-04-16T11:11:39.016Z,1009.47
2023-04-16T11:12:39.060Z,1009.47
2023-04-16T11:13:39.012Z,1009.49
2023-04-16T11:14:39.038Z,1009.50
2023-04-16T11:15:39.024Z,1009.52
2023-04-16T11:16:38.975Z,1009.53
2023-04-16T11:17:39.022Z,1009.51
2023-04-16T11:18:43.571Z,1009.51
2023-04-16T11:19:38.958Z,1009.48
2023-04-16T11:20:38.949Z,1009.50
2023-04-16T11:21:39.021Z,1009.52
2023-04-16T11:22:38.899Z,1009.51
2023-04-16T11:23:38.890Z,1009.52
2023-04-16T11:24:38.922Z,1009.51
2023-04-16T11:25:38.863Z,1009.48
2023-04-16T11:26:38.890Z,1009.50
2023-04-16T11:27:38.857Z,1009.50
2023-04-16T11:28:38.845Z,1009.49
2023-04-16T11:29:38.860Z,1009.51
2023-04-16T11:30:38.817Z,1009.52
2023-04-16T11:31:38.875Z,1009.51
2023-04-16T11:32:38.825Z,1009.52
2023-04-16T11:33:38.790Z,1009.50
2023-04-16T11:34:38.821Z,1009.50
2023-04-16T11:35:38.782Z,1009.52
2023-04-16T11:36:38.782Z,1009.53
2023-04-16T11:37:38.738Z,1009.55
2023-04-16T11:38:38.741Z,1009.53
2023-04-16T11:39:38.760Z,1009.53
2023-04-16T11:40:38.738Z,1009.52
2023-04-16T11:41:38.752Z,1009.51
2023-04-16T11:42:38.775Z,1009.53
2023-04-16T11:43:38.715Z,1009.55
2023-04-16T11:44:38.688Z,1009.54
2023-04-16T11:45:38.659Z,1009.52
2023-04-16T11:46:38.725Z,1009.57
2023-04-16T11:47:38.673Z,1009.58
2023-04-16T11:48:38.637Z,1009.59
2023-04-16T11:49:38.608Z,1009.63
2023-04-16T11:50:38.622Z,1009.59
2023-04-16T11:51:38.617Z,1009.63
2023-04-16T11:52:38.598Z,1009.65
2023-04-16T11:53:38.569Z,1009.59
2023-04-16T11:54:38.602Z,1009.58
2023-04-16T11:55:38.568Z,1009.58
2023-04-16T11:56:38.547Z,1009.60
2023-04-16T11:57:38.536Z,1009.61
2023-04-16T11:58:38.518Z,1009.61
2023-04-16T11:59:38.523Z,1009.60
2023-04-16T12:00:38.548Z,1009.59
2023-04-16T12:01:38.506Z,1009.60
2023-04-16T12:02:38.593Z,1009.61
2023-04-16T12:03:38.750Z,1009.61
2023-04-16T12:04:38.595Z,1009.58
2023-04-16T12:05:38.493Z,1009.59
2023-04-16T12:06:38.459Z,1009.58
2023-04-16T12:07:38.435Z,1009.64
2023-04-16T12:08:38.422Z,1009.62
2023-04-16T12:09:40.446Z,1009.64
2023-04-16T12:10:38.423Z,1009.65
2023-04-16T12:11:38.365Z,1009.64
2023-04-16T12:12:38.365Z,1009.65
2023-04-16T12:13:38.354Z,1009.65
2023-04-16T12:14:38.380Z,1009.65
2023-04-16T12:15:38.357Z,1009.68
2023-04-16T12:16:38.339Z,1009.65
2023-04-16T12:17:38.464Z,1009.66
2023-04-16T12:18:38.335Z,1009.69
2023-04-16T12:19:38.316Z,1009.66
2023-04-16T12:20:38.352Z,1009.70
2023-04-16T12:21:38.287Z,1009.69
2023-04-16T12:22:38.269Z,1009.68
2023-04-16T12:23:38.278Z,1009.72
2023-04-16T12:24:38.278Z,1009.72
2023-04-16T12:25:38.275Z,1009.74
2023-04-16T12:26:38.263Z,1009.75
2023-04-16T12:27:38.234Z,1009.73
2023-04-16T12:28:38.261Z,1009.75
2023-04-16T12:29:38.217Z,1009.74
2023-04-16T12:30:38.234Z,1009.75
2023-04-16T12:31:38.234Z,1009.77
2023-04-16T12:32:38.173Z,1009.78
2023-04-16T12:33:38.157Z,1009.79
2023-04-16T12:34:48.826Z,1009.79
2023-04-16T12:35:38.181Z,1009.81
2023-04-16T12:36:38.142Z,1009.83
2023-04-16T12:37:38.113Z,1009.82
2023-04-16T12:38:38.105Z,1009.83
2023-04-16T12:39:38.093Z,1009.83
2023-04-16T12:40:38.075Z,1009.82
2023-04-16T12:41:38.079Z,1009.82
2023-04-16T12:42:38.081Z,1009.82
2023-04-16T12:43:38.036Z,1009.83
2023-04-16T12:44:38.086Z,1009.84
2023-04-16T12:45:38.056Z,1009.84
2023-04-16T12:46:38.120Z,1009.86
2023-04-16T12:47:38.109Z,1009.86
2023-04-16T12:48:38.041Z,1009.85
2023-04-16T12:49:37.986Z,1009.86
2023-04-16T12:50:37.998Z,1009.87
2023-04-16T12:51:37.979Z,1009.87
2023-04-16T12:52:37.984Z,1009.85
2023-04-16T12:53:37.926Z,1009.84
2023-04-16T12:54:37.945Z,1009.84
2023-04-16T12:55:37.929Z,1009.85
2023-04-16T12:56:37.902Z,1009.83
2023-04-16T12:57:37.900Z,1009.83
2023-04-16T12:58:37.892Z,1009.84
2023-04-16T12:59:37.900Z,1009.82
2023-04-16T13:00:37.876Z,1009.84
2023-04-16T13:01:37.873Z,1009.84
2023-04-16T13:02:37.995Z,1009.84
2023-04-16T13:03:37.923Z,1009.85
2023-04-16T13:04:37.924Z,1009.86
2023-04-16T13:05:37.848Z,1009.85
2023-04-16T13:06:37.808Z,1009.85
2023-04-16T13:07:37.813Z,1009.85
2023-04-16T13:08:37.796Z,1009.84
2023-04-16T13:09:39.617Z,1009.83
2023-04-16T13:10:37.753Z,1009.82
2023-04-16T13:11:37.741Z,1009.83
2023-04-16T13:12:37.771Z,1009.83
2023-04-16T13:13:37.756Z,1009.84
2023-04-16T13:14:37.728Z,1009.85
2023-04-16T13:15:37.759Z,1009.84
2023-04-16T13:16:37.713Z,1009.84
2023-04-16T13:17:37.732Z,1009.83
2023-04-16T13:18:37.710Z,1009.84
2023-04-16T13:19:37.700Z,1009.82
2023-04-16T13:20:37.666Z,1009.84
2023-04-16T13:21:37.640Z,1009.86
2023-04-16T13:22:37.700Z,1009.86
2023-04-16T13:23:37.623Z,1009.85
2023-04-16T13:24:37.635Z,1009.86
2023-04-16T13:25:37.640Z,1009.86
2023-04-16T13:26:37.610Z,1009.85
2023-04-16T13:27:37.603Z,1009.86
2023-04-16T13:28:37.597Z,1009.87
2023-04-16T13:29:37.568Z,1009.84
2023-04-16T13:30:37.592Z,1009.86
2023-04-16T13:31:37.550Z,1009.85
2023-04-16T13:32:37.565Z,1009.84
2023-04-16T13:33:37.517Z,1009.84
2023-04-16T13:34:37.509Z,1009.82
2023-04-16T13:35:37.531Z,1009.83
2023-04-16T13:36:37.499Z,1009.84
2023-04-16T13:37:37.473Z,1009.81
2023-04-16T13:38:37.466Z,1009.81
2023-04-16T13:39:37.507Z,1009.79
2023-04-16T13:40:37.436Z,1009.80
2023-04-16T13:41:37.444Z,1009.79
2023-04-16T13:42:37.449Z,1009.81
2023-04-16T13:43:37.406Z,1009.82
2023-04-16T13:44:37.413Z,1009.81
2023-04-16T13:45:37.429Z,1009.79
2023-04-16T13:46:37.487Z,1009.81
2023-04-16T13:47:37.434Z,1009.81
2023-04-16T13:48:37.371Z,1009.80
2023-04-16T13:49:37.356Z,1009.80
2023-04-16T13:50:37.328Z,1009.81
2023-04-16T13:51:37.352Z,1009.80
2023-04-16T13:52:37.324Z,1009.81
2023-04-16T13:53:37.320Z,1009.79
2023-04-16T13:54:37.310Z,1009.80
2023-04-16T13:55:37.283Z,1009.81
2023-04-16T13:56:37.279Z,1009.80
2023-04-16T13:57:37.278Z,1009.81
2023-04-16T13:58:37.243Z,1009.78
2023-04-16T13:59:37.276Z,1009.79
2023-04-16T14:00:37.276Z,1009.79
2023-04-16T14:01:37.248Z,1009.79
2023-04-16T14:02:37.427Z,1009.80
2023-04-16T14:03:37.321Z,1009.80
2023-04-16T14:04:37.264Z,1009.79
2023-04-16T14:05:37.187Z,1009.81
2023-04-16T14:06:37.173Z,1009.80
2023-04-16T14:07:37.159Z,1009.82
2023-04-16T14:08:37.163Z,1009.81
2023-04-16T14:09:38.045Z,1009.79
2023-04-16T14:10:37.182Z,1009.80
2023-04-16T14:11:37.103Z,1009.80
2023-04-16T14:12:37.106Z,1009.83
2023-04-16T14:13:37.116Z,1009.83
2023-04-16T14:14:37.138Z,1009.81
2023-04-16T14:15:37.056Z,1009.82
2023-04-16T14:16:37.075Z,1009.82
2023-04-16T14:17:37.183Z,1009.81
2023-04-16T14:18:37.058Z,1009.82
2023-04-16T14:19:37.048Z,1009.81
2023-04-16T14:20:37.016Z,1009.82
2023-04-16T14:21:37.000Z,1009.81
2023-04-16T14:22:37.011Z,1009.80
2023-04-16T14:23:36.987Z,1009.80
2023-04-16T14:24:37.010Z,1009.81
2023-04-16T14:25:36.951Z,1009.81
2023-04-16T14:26:37.024Z,1009.79
2023-04-16T14:27:36.959Z,1009.80
2023-04-16T14:28:36.959Z,1009.80
2023-04-16T14:29:36.936Z,1009.80
2023-04-16T14:30:36.905Z,1009.80
2023-04-16T14:31:36.941Z,1009.80
2023-04-16T14:32:36.947Z,1009.79
2023-04-16T14:33:36.888Z,1009.79
2023-04-16T14:34:36.932Z,1009.79
2023-04-16T14:35:36.849Z,1009.79
2023-04-16T14:36:36.893Z,1009.80
2023-04-16T14:37:36.824Z,1009.80
2023-04-16T14:38:36.836Z,1009.79
2023-04-16T14:39:36.843Z,1009.79
2023-04-16T14:40:36.817Z,1009.78
2023-04-16T14:41:36.804Z,1009.78
2023-04-16T14:42:36.833Z,1009.79
2023-04-16T14:43:38.096Z,1009.78
2023-04-16T14:44:36.782Z,1009.78
2023-04-16T14:45:36.791Z,1009.78
2023-04-16T14:46:36.760Z,1009.79
2023-04-16T14:47:36.740Z,1009.80
2023-04-16T14:48:36.741Z,1009.80
2023-04-16T14:49:36.705Z,1009.81
2023-04-16T14:50:36.694Z,1009.81
2023-04-16T14:51:36.669Z,1009.80
2023-04-16T14:52:36.698Z,1009.82
2023-04-16T14:53:36.684Z,1009.82
2023-04-16T14:54:36.650Z,1009.81
2023-04-16T14:55:36.635Z,1009.80
2023-04-16T14:56:36.744Z,1009.82
2023-04-16T14:57:36.608Z,1009.81
2023-04-16T14:58:39.048Z,1009.82
2023-04-16T14:59:36.600Z,1009.81
2023-04-16T15:00:36.593Z,1009.80
2023-04-16T15:01:36.595Z,1009.81
2023-04-16T15:02:36.793Z,1009.82
2023-04-16T15:03:36.826Z,1009.82
2023-04-16T15:04:36.553Z,1009.82
2023-04-16T15:05:36.558Z,1009.82
2023-04-16T15:06:36.536Z,1009.82
2023-04-16T15:07:36.504Z,1009.82
2023-04-16T15:08:36.487Z,1009.83
2023-04-16T15:09:36.528Z,1009.80
2023-04-16T15:10:36.488Z,1009.81
2023-04-16T15:11:36.459Z,1009.81
2023-04-16T15:12:36.449Z,1009.82
2023-04-16T15:13:36.493Z,1009.81
2023-04-16T15:14:36.483Z,1009.81
2023-04-16T15:15:36.521Z,1009.81
2023-04-16T15:16:36.463Z,1009.79
2023-04-16T15:17:36.430Z,1009.80
2023-04-16T15:18:36.378Z,1009.81
2023-04-16T15:19:36.388Z,1009.80
2023-04-16T15:20:36.370Z,1009.80
2023-04-16T15:21:36.361Z,1009.81
2023-04-16T15:22:36.350Z,1009.82
2023-04-16T15:23:36.362Z,1009.81
2023-04-16T15:24:36.328Z,1009.81
2023-04-16T15:25:36.324Z,1009.82
2023-04-16T15:26:36.296Z,1009.82
2023-04-16T15:27:36.302Z,1009.83
2023-04-16T15:28:36.302Z,1009.83
2023-04-16T15:29:36.315Z,1009.83
2023-04-16T15:30:36.274Z,1009.84
2023-04-16T15:31:36.244Z,1009.85
2023-04-16T15:32:36.262Z,1009.85
2023-04-16T15:33:36.269Z,1009.85
2023-04-16T15:34:36.222Z,1009.85
2023-04-16T15:35:36.207Z,1009.86
2023-04-16T15:36:36.183Z,1009.85
2023-04-16T15:37:36.182Z,1009.84
2023-04-16T15:38:36.172Z,1009.84
2023-04-16T15:39:36.297Z,1009.84
2023-04-16T15:40:36.270Z,1009.84
2023-04-16T15:41:37.051Z,1009.84
2023-04-16T15:42:36.151Z,1009.84
2023-04-16T15:43:36.199Z,1009.84
2023-04-16T15:44:36.116Z,1009.85
2023-04-16T15:45:36.128Z,1009.86
2023-04-16T15:46:36.147Z,1009.86
2023-04-16T15:47:36.165Z,1009.88
2023-04-16T15:48:36.069Z,1009.87
2023-04-16T15:49:36.088Z,1009.88
2023-04-16T15:50:36.134Z,1009.89
2023-04-16T15:51:36.066Z,1009.89
2023-04-16T15:52:36.083Z,1009.89
2023-04-16T15:53:36.123Z,1009.88
2023-04-16T15:54:36.074Z,1009.87
2023-04-16T15:55:36.063Z,1009.88
2023-04-16T15:56:36.043Z,1009.88
2023-04-16T15:57:35.973Z,1009.89
2023-04-16T15:58:36.015Z,1009.90
2023-04-16T15:59:36.015Z,1009.90
2023-04-16T16:00:35.971Z,1009.90
2023-04-16T16:01:36.043Z,1009.90
2023-04-16T16:02:36.249Z,1009.92
2023-04-16T16:03:36.159Z,1009.92
2023-04-16T16:04:36.025Z,1009.93
2023-04-16T16:05:35.907Z,1009.94